Hunters, Washington
Current Conditions -  °F | °C
As of 12:23 PM on Sunday 25 Jan 2015 (Local Time) from KDEW Reporting Station
Moderate Fog Moderate Fog  
Wind Chill: 43°   Ceiling: 300
Heat Index: 43°   Visibility: 0.5mi
Dew Point: 43°   Wind: 0mph
Humidity: 100%   Direction: NA
Pressure: 30.23"   Gusts: NA
Location:  48.12°N, 118.2°W
Report Text: KDEW 252023Z AUTO 00000KT 1/2SM FG OVC003 06/06 A3023 RMK AO2 T00610061
Loading
Personal Weather Stations






























Interactive Weather Map New forecast layout! Learn more

10-Day Weather Forecast

Advertisements
Track Severe Weather on mobile